Time;durP1;ratioP1;P1;durP2;ratioP2;P2;SDS_P1;SDS_P2;PMS_P1;PMS_P2;Temp;Humidity;BMP_temperature;BMP_pressure;BME280_temperature;BME280_humidity;BME280_pressure;Samples;Min_cycle;Max_cycle;Signal;HPM_P1;HPM_P2
2022/01/25 00:15:02;;;;;;;1.60;1.40;;;4.40;98.20;;;;;;4952029;28;20453;-74
2022/01/25 00:24:46;;;;;;;1.60;1.30;;;4.40;98.20;;;;;;4958743;28;20566;-73
2022/01/25 00:27:26;;;;;;;1.77;1.67;;;4.40;98.20;;;;;;4951695;28;20567;-73
2022/01/25 00:30:10;;;;;;;1.60;1.30;;;4.30;98.20;;;;;;4960952;28;20485;-73
2022/01/25 00:32:37;;;;;;;1.60;1.40;;;4.30;98.20;;;;;;4959405;28;20535;-73
2022/01/25 00:35:04;;;;;;;1.60;1.30;;;4.30;98.20;;;;;;4953868;28;20839;-73
2022/01/25 00:37:33;;;;;;;1.63;1.30;;;4.30;98.20;;;;;;4955198;28;20498;-73
2022/01/25 00:40:00;;;;;;;1.60;1.40;;;4.30;98.20;;;;;;4952456;28;20469;-73
2022/01/25 00:42:27;;;;;;;1.60;1.40;;;4.20;98.20;;;;;;4953232;28;20482;-73
2022/01/25 00:44:55;;;;;;;1.70;1.50;;;4.20;98.20;;;;;;4954635;28;20491;-73
2022/01/25 00:47:25;;;;;;;1.70;1.40;;;4.20;98.20;;;;;;4951437;28;20478;-73
2022/01/25 00:49:53;;;;;;;1.60;1.30;;;4.20;98.20;;;;;;4951561;28;20487;-72
2022/01/25 00:53:52;;;;;;;1.60;1.40;;;4.30;98.20;;;;;;4951091;28;20489;-73
2022/01/25 00:55:09;;;;;;;1.60;1.30;;;4.20;98.20;;;;;;4951188;28;21153;-73
2022/01/25 00:57:36;;;;;;;1.60;1.30;;;4.20;98.20;;;;;;4955167;28;20882;-73
2022/01/25 01:00:06;;;;;;;1.63;1.37;;;4.20;98.20;;;;;;4964009;28;20465;-72
2022/01/25 01:02:33;;;;;;;1.60;1.30;;;4.10;98.20;;;;;;4958480;28;20490;-73
2022/01/25 01:04:59;;;;;;;1.60;1.30;;;4.20;98.20;;;;;;4953049;28;20499;-73
2022/01/25 01:07:26;;;;;;;1.70;1.60;;;4.20;98.20;;;;;;4954050;28;20512;-73
2022/01/25 01:09:54;;;;;;;1.63;1.40;;;4.20;98.20;;;;;;4952846;28;20487;-73
2022/01/25 01:12:41;;;;;;;1.67;1.40;;;4.20;98.20;;;;;;4962486;28;20493;-73
2022/01/25 01:15:21;;;;;;;1.63;1.40;;;4.20;98.20;;;;;;4957676;28;20462;-72
2022/01/25 01:31:49;;;;;;;1.63;1.40;;;4.20;98.20;;;;;;4952944;28;21187;-73
2022/01/25 01:34:44;;;;;;;1.70;1.40;;;4.20;98.20;;;;;;4958529;28;20458;-73
2022/01/25 01:37:37;;;;;;;1.70;1.40;;;4.20;98.20;;;;;;4952066;28;20564;-72
2022/01/25 01:45:45;;;;;;;1.70;1.37;;;4.10;98.20;;;;;;4939707;28;21002;-72
2022/01/25 01:48:26;;;;;;;1.60;1.43;;;4.10;98.20;;;;;;4942545;28;21025;-72
2022/01/25 01:50:53;;;;;;;1.63;1.40;;;4.10;98.20;;;;;;4940048;28;20466;-73
2022/01/25 01:53:20;;;;;;;1.70;1.47;;;4.10;98.20;;;;;;4965226;28;20471;-72
2022/01/25 01:55:47;;;;;;;1.60;1.30;;;4.10;98.20;;;;;;4949465;28;20643;-72
2022/01/25 01:58:14;;;;;;;2.47;2.27;;;4.10;98.20;;;;;;4965254;28;20497;-72
2022/01/25 02:00:46;;;;;;;1.60;1.40;;;4.10;98.20;;;;;;4950713;28;20479;-72
2022/01/25 02:03:14;;;;;;;1.63;1.40;;;4.10;98.20;;;;;;4940112;28;20485;-72
2022/01/25 02:05:42;;;;;;;1.60;1.30;;;4.10;98.20;;;;;;4959143;28;20500;-72
2022/01/25 02:08:08;;;;;;;1.60;1.30;;;4.10;98.20;;;;;;4956296;28;20490;-72
2022/01/25 02:10:35;;;;;;;1.60;1.50;;;4.10;98.20;;;;;;4949561;28;20474;-73
2022/01/25 02:13:05;;;;;;;1.70;1.60;;;4.00;98.20;;;;;;4954617;28;20560;-73
2022/01/25 02:15:32;;;;;;;1.60;1.30;;;4.00;98.20;;;;;;4951269;28;20463;-72
2022/01/25 02:23:27;;;;;;;1.67;1.40;;;3.90;98.20;;;;;;4939183;28;20504;-73
2022/01/25 02:25:56;;;;;;;1.70;1.50;;;3.90;98.20;;;;;;4929855;28;20502;-73
2022/01/25 02:28:25;;;;;;;1.60;1.40;;;3.90;98.20;;;;;;4964342;28;20881;-73
2022/01/25 02:30:52;;;;;;;1.60;1.30;;;4.00;98.20;;;;;;4938803;28;20586;-73
2022/01/25 02:33:19;;;;;;;1.70;1.40;;;4.00;98.20;;;;;;4963278;28;20462;-72
2022/01/25 02:35:47;;;;;;;1.70;1.50;;;4.00;98.20;;;;;;4950434;28;20463;-72
2022/01/25 02:38:20;;;;;;;1.60;1.40;;;4.00;98.20;;;;;;4945537;28;20489;-73
2022/01/25 02:40:46;;;;;;;1.70;1.43;;;4.00;98.20;;;;;;4967103;28;20500;-73
2022/01/25 02:43:16;;;;;;;1.60;1.30;;;4.00;98.20;;;;;;4941282;28;20958;-73
2022/01/25 02:45:46;;;;;;;1.70;1.57;;;4.00;98.20;;;;;;4954905;28;20494;-72
2022/01/25 02:48:30;;;;;;;1.60;1.40;;;4.00;98.20;;;;;;4941146;28;20878;-73
2022/01/25 02:51:01;;;;;;;1.70;1.50;;;4.00;98.20;;;;;;4943549;28;20466;-72
2022/01/25 02:53:28;;;;;;;1.70;1.40;;;3.90;98.20;;;;;;4970319;28;20532;-72
2022/01/25 02:55:56;;;;;;;1.67;1.40;;;4.00;98.20;;;;;;4944063;28;20950;-73
2022/01/25 02:58:23;;;;;;;1.67;1.40;;;4.00;98.20;;;;;;4966378;28;20494;-73
2022/01/25 03:00:50;;;;;;;1.63;1.40;;;3.90;98.20;;;;;;4943992;28;20493;-72
2022/01/25 03:03:17;;;;;;;1.60;1.40;;;3.90;98.20;;;;;;4966455;28;20473;-73
2022/01/25 03:05:44;;;;;;;1.63;1.40;;;3.90;98.20;;;;;;4963638;28;20497;-72
2022/01/25 03:08:14;;;;;;;1.63;1.40;;;3.90;98.20;;;;;;4969399;28;20498;-72
2022/01/25 03:10:45;;;;;;;1.70;1.30;;;3.90;98.20;;;;;;4958542;28;20467;-73
2022/01/25 03:13:17;;;;;;;1.60;1.40;;;3.90;98.20;;;;;;4941214;28;20482;-72
2022/01/25 03:16:03;;;;;;;1.70;1.40;;;3.90;98.20;;;;;;4953525;28;20521;-72
2022/01/25 03:18:44;;;;;;;1.63;1.30;;;3.90;98.20;;;;;;4942049;28;20494;-72
2022/01/25 03:21:33;;;;;;;1.70;1.40;;;3.90;98.20;;;;;;4944356;28;20490;-73
2022/01/25 03:24:02;;;;;;;1.60;1.40;;;3.90;98.20;;;;;;4956495;28;20469;-73
2022/01/25 03:26:29;;;;;;;1.67;1.40;;;3.90;98.20;;;;;;4947480;28;20474;-73
2022/01/25 03:28:56;;;;;;;1.60;1.40;;;3.90;98.20;;;;;;4962198;28;21036;-72
2022/01/25 03:31:24;;;;;;;1.60;1.30;;;3.90;98.20;;;;;;4945664;28;20485;-73
2022/01/25 03:33:51;;;;;;;1.63;1.50;;;3.90;98.20;;;;;;4957264;28;20947;-73
2022/01/25 03:36:18;;;;;;;1.60;1.40;;;3.90;98.20;;;;;;4946401;28;20486;-73
2022/01/25 03:38:45;;;;;;;1.63;1.40;;;3.90;98.20;;;;;;4956873;28;20513;-73
2022/01/25 03:41:15;;;;;;;1.60;1.30;;;4.00;98.20;;;;;;4936638;28;20477;-73
2022/01/25 03:43:44;;;;;;;1.70;1.50;;;4.00;98.20;;;;;;4971761;28;20466;-73
2022/01/25 03:46:15;;;;;;;1.67;1.40;;;4.00;98.20;;;;;;4944252;28;20489;-73
2022/01/25 03:51:26;;;;;;;1.60;1.30;;;4.00;98.20;;;;;;4959047;28;20912;-73
2022/01/25 03:53:53;;;;;;;1.63;1.43;;;4.00;98.20;;;;;;4963898;28;20463;-73
2022/01/25 03:56:22;;;;;;;1.70;1.60;;;4.00;98.20;;;;;;4945615;28;20809;-73
2022/01/25 03:58:50;;;;;;;1.70;1.50;;;4.00;98.20;;;;;;4961865;28;20993;-72
2022/01/25 04:01:17;;;;;;;1.63;1.40;;;4.00;98.20;;;;;;4946294;28;20485;-73
2022/01/25 04:03:52;;;;;;;1.60;1.30;;;4.00;98.20;;;;;;4980439;28;20481;-73
2022/01/25 04:06:20;;;;;;;1.63;1.30;;;4.10;98.20;;;;;;4959627;28;20485;-73
2022/01/25 04:08:47;;;;;;;1.63;1.40;;;4.10;98.20;;;;;;4966203;28;20549;-73
2022/01/25 04:11:14;;;;;;;1.70;1.50;;;4.10;98.20;;;;;;4957337;28;20857;-73
2022/01/25 04:13:42;;;;;;;1.60;1.30;;;4.00;98.20;;;;;;4977527;28;20473;-72
2022/01/25 04:16:14;;;;;;;1.70;1.40;;;4.00;98.20;;;;;;4944089;28;20496;-72
2022/01/25 04:18:55;;;;;;;3.60;2.33;;;3.90;98.20;;;;;;4965264;28;21029;-73
2022/01/25 04:21:42;;;;;;;1.60;1.40;;;3.90;98.20;;;;;;4943630;28;20474;-73
2022/01/25 04:26:59;;;;;;;1.67;1.40;;;3.90;98.20;;;;;;4941606;28;20531;-72
2022/01/25 04:29:28;;;;;;;1.67;1.30;;;4.00;98.20;;;;;;4956745;28;20913;-73
2022/01/25 04:31:56;;;;;;;1.70;1.40;;;4.00;98.20;;;;;;4949174;28;20959;-73
2022/01/25 04:53:43;;;;;;;1.70;1.50;;;4.00;98.20;;;;;;4939935;28;20458;-73
2022/01/25 04:56:16;;;;;;;1.70;1.40;;;4.00;98.20;;;;;;4943084;28;20489;-73
2022/01/25 04:58:50;;;;;;;1.70;1.50;;;4.00;98.20;;;;;;4959157;28;20958;-73
2022/01/25 05:01:19;;;;;;;1.63;1.30;;;3.90;98.20;;;;;;4941610;28;20481;-73
2022/01/25 05:03:57;;;;;;;1.70;1.60;;;3.90;98.20;;;;;;4961937;28;20825;-72
2022/01/25 05:06:25;;;;;;;1.70;1.50;;;3.90;98.20;;;;;;4943178;28;20485;-72
2022/01/25 05:08:55;;;;;;;1.63;1.40;;;3.90;98.20;;;;;;4960469;28;20557;-72
2022/01/25 05:11:28;;;;;;;1.70;1.40;;;4.00;98.20;;;;;;4942863;28;21033;-73
2022/01/25 05:14:11;;;;;;;1.70;1.40;;;4.00;98.20;;;;;;4959635;28;20471;-73
2022/01/25 05:16:48;;;;;;;1.60;1.40;;;4.00;98.20;;;;;;4945736;28;20549;-73
2022/01/25 05:19:26;;;;;;;1.67;1.40;;;4.00;98.20;;;;;;4956763;28;20486;-73
2022/01/25 05:22:07;;;;;;;1.63;1.33;;;4.00;98.20;;;;;;4946113;28;20509;-73
2022/01/25 05:24:36;;;;;;;1.67;1.30;;;4.00;98.20;;;;;;4953943;28;20470;-73
2022/01/25 05:27:04;;;;;;;1.60;1.40;;;4.00;98.20;;;;;;4952631;28;20497;-73
2022/01/25 05:29:32;;;;;;;1.70;1.40;;;4.00;98.20;;;;;;4972690;28;20525;-72
2022/01/25 05:32:00;;;;;;;2.77;2.57;;;4.00;98.20;;;;;;4965493;28;20535;-75
2022/01/25 05:34:28;;;;;;;1.67;1.37;;;4.00;98.20;;;;;;4959801;28;20478;-73
2022/01/25 05:36:54;;;;;;;1.60;1.37;;;4.00;98.20;;;;;;4947215;28;20481;-73
2022/01/25 05:39:25;;;;;;;1.70;1.40;;;4.00;98.20;;;;;;4954083;28;20486;-74
2022/01/25 05:41:57;;;;;;;2.47;2.27;;;4.00;98.20;;;;;;4946965;28;20596;-73
2022/01/25 05:44:37;;;;;;;1.60;1.40;;;4.00;98.20;;;;;;4956181;28;20491;-73
2022/01/25 05:47:07;;;;;;;1.60;1.30;;;4.00;98.20;;;;;;4950877;28;20525;-73
2022/01/25 05:49:36;;;;;;;1.63;1.30;;;4.00;98.20;;;;;;4960109;28;20498;-73
2022/01/25 05:52:04;;;;;;;1.70;1.40;;;4.00;98.20;;;;;;4948235;28;20494;-73
2022/01/25 05:54:31;;;;;;;1.67;1.40;;;4.00;98.20;;;;;;4956793;28;20470;-73
2022/01/25 05:56:58;;;;;;;1.60;1.40;;;4.00;98.20;;;;;;4946251;28;20481;-73
2022/01/25 05:59:24;;;;;;;1.67;1.40;;;4.00;98.20;;;;;;4965176;28;20869;-73
2022/01/25 06:01:51;;;;;;;1.70;1.57;;;4.00;98.20;;;;;;4957317;28;20489;-73
2022/01/25 06:04:21;;;;;;;1.63;1.40;;;4.00;98.20;;;;;;4956688;28;20892;-73
2022/01/25 06:06:48;;;;;;;1.60;1.30;;;4.00;98.20;;;;;;4946949;28;20486;-73
2022/01/25 06:09:15;;;;;;;1.63;1.40;;;4.00;98.20;;;;;;4955336;28;20486;-73
2022/01/25 06:11:41;;;;;;;1.63;1.40;;;4.00;98.20;;;;;;4944831;28;20533;-72
2022/01/25 06:14:08;;;;;;;1.67;1.40;;;4.00;98.20;;;;;;4958293;28;20538;-73
2022/01/25 06:16:35;;;;;;;1.63;1.40;;;4.00;98.20;;;;;;4946652;28;20865;-72
2022/01/25 06:19:02;;;;;;;1.60;1.33;;;4.00;98.20;;;;;;4961010;28;20490;-73
2022/01/25 06:21:30;;;;;;;1.70;1.50;;;3.90;98.20;;;;;;4946475;28;20994;-72
2022/01/25 06:23:57;;;;;;;1.60;1.40;;;3.90;98.20;;;;;;4962415;28;20466;-73
2022/01/25 06:26:24;;;;;;;1.60;1.30;;;3.90;98.20;;;;;;4946881;28;20990;-73
2022/01/25 06:28:51;;;;;;;1.60;1.40;;;3.90;98.20;;;;;;4962910;28;20561;-73
2022/01/25 06:31:18;;;;;;;1.60;1.30;;;3.90;98.20;;;;;;4944498;28;20540;-72
2022/01/25 06:33:46;;;;;;;1.60;1.30;;;3.90;98.20;;;;;;4964238;28;20557;-73
2022/01/25 06:36:13;;;;;;;1.70;1.50;;;3.90;98.20;;;;;;4945825;28;20488;-72
2022/01/25 06:38:42;;;;;;;1.87;1.70;;;3.90;98.20;;;;;;4969873;28;20489;-72
2022/01/25 06:41:11;;;;;;;1.70;1.50;;;3.90;98.20;;;;;;4959916;28;20481;-72
2022/01/25 06:43:39;;;;;;;1.60;1.30;;;4.00;98.20;;;;;;4964711;28;20553;-72
2022/01/25 06:46:08;;;;;;;1.60;1.40;;;4.00;98.20;;;;;;4944373;28;20958;-73
2022/01/25 06:48:35;;;;;;;1.70;1.50;;;4.00;98.20;;;;;;4983316;28;20866;-72
2022/01/25 06:51:02;;;;;;;1.70;1.40;;;4.00;98.20;;;;;;4948424;28;20827;-73
2022/01/25 06:53:29;;;;;;;1.60;1.40;;;3.90;98.20;;;;;;4968183;28;20493;-72
2022/01/25 06:55:57;;;;;;;1.60;1.30;;;3.90;98.20;;;;;;4946466;28;20544;-72
2022/01/25 06:58:24;;;;;;;1.60;1.30;;;3.90;98.20;;;;;;4956652;28;20501;-72
2022/01/25 07:00:51;;;;;;;1.60;1.33;;;3.90;98.20;;;;;;4937496;28;20874;-71
2022/01/25 07:03:18;;;;;;;1.70;1.40;;;3.90;98.20;;;;;;4963793;28;20467;-71
2022/01/25 07:05:45;;;;;;;1.67;1.40;;;3.90;98.20;;;;;;4951431;28;20475;-71
2022/01/25 07:08:12;;;;;;;1.60;1.40;;;3.90;98.20;;;;;;4958990;28;20495;-72
2022/01/25 07:10:39;;;;;;;1.67;1.37;;;3.90;98.20;;;;;;4949187;28;20573;-71
2022/01/25 07:13:07;;;;;;;1.70;1.57;;;3.90;98.20;;;;;;4956501;28;20548;-72
2022/01/25 07:15:34;;;;;;;1.60;1.40;;;3.90;98.20;;;;;;4954904;28;20477;-71
2022/01/25 07:18:01;;;;;;;1.60;1.40;;;3.90;98.20;;;;;;4956868;28;20735;-72
2022/01/25 07:20:28;;;;;;;1.60;1.30;;;3.90;98.20;;;;;;4948925;28;20471;-72
2022/01/25 07:22:55;;;;;;;1.60;1.40;;;3.90;98.20;;;;;;4956006;28;20841;-71
2022/01/25 07:25:25;;;;;;;1.70;1.40;;;3.90;98.20;;;;;;4953929;28;20549;-72
2022/01/25 07:27:53;;;;;;;1.87;1.50;;;3.90;98.20;;;;;;4958204;28;20486;-72
2022/01/25 07:30:21;;;;;;;1.67;1.50;;;3.90;98.20;;;;;;4955637;28;20467;-71
2022/01/25 07:32:49;;;;;;;1.60;1.40;;;3.90;98.20;;;;;;4958386;28;20541;-73
2022/01/25 07:35:21;;;;;;;2.33;2.13;;;3.90;98.20;;;;;;4956841;28;20471;-72
2022/01/25 07:37:48;;;;;;;1.60;1.40;;;3.90;98.20;;;;;;4955850;28;20486;-71
2022/01/25 07:40:16;;;;;;;1.70;1.47;;;3.90;98.20;;;;;;4949284;28;20471;-71
2022/01/25 07:42:45;;;;;;;1.70;1.40;;;3.90;98.20;;;;;;4954215;28;20490;-72
2022/01/25 07:45:12;;;;;;;1.63;1.40;;;3.90;98.20;;;;;;4949999;28;20910;-72
2022/01/25 07:47:41;;;;;;;1.70;1.40;;;3.90;98.20;;;;;;4954375;28;20493;-72
2022/01/25 07:50:09;;;;;;;1.70;1.40;;;3.90;98.20;;;;;;4952489;28;20467;-72
2022/01/25 07:52:37;;;;;;;1.60;1.40;;;3.90;98.20;;;;;;4949659;28;20805;-72
2022/01/25 07:55:06;;;;;;;1.60;1.40;;;3.90;98.20;;;;;;4959909;28;20463;-73
2022/01/25 07:57:33;;;;;;;1.63;1.50;;;3.90;98.20;;;;;;4948410;28;20510;-72
2022/01/25 08:00:23;;;;;;;1.60;1.30;;;3.90;98.20;;;;;;4964005;28;20473;-73
2022/01/25 08:02:53;;;;;;;5.53;5.13;;;3.80;98.20;;;;;;4946794;28;20481;-72
2022/01/25 08:05:21;;;;;;;1.60;1.40;;;3.80;98.20;;;;;;4962618;28;20462;-73
2022/01/25 08:07:48;;;;;;;3.30;3.10;;;3.80;98.20;;;;;;4954974;28;20497;-73
2022/01/25 08:10:15;;;;;;;1.60;1.40;;;3.80;98.20;;;;;;4949325;28;20471;-73
2022/01/25 08:12:42;;;;;;;1.60;1.30;;;3.90;98.20;;;;;;4955139;28;20485;-74
2022/01/25 08:15:10;;;;;;;1.67;1.40;;;3.90;98.20;;;;;;4956178;28;20554;-73
2022/01/25 08:17:38;;;;;;;1.60;1.33;;;3.90;98.20;;;;;;4953413;28;20496;-73
2022/01/25 08:20:07;;;;;;;1.70;1.40;;;3.90;98.20;;;;;;4966586;28;20477;-72
2022/01/25 08:22:35;;;;;;;1.60;1.40;;;3.90;98.20;;;;;;4959966;28;20528;-73
2022/01/25 08:25:03;;;;;;;1.63;1.50;;;3.90;98.20;;;;;;4952934;28;20477;-73
2022/01/25 08:27:31;;;;;;;1.63;1.40;;;4.00;98.20;;;;;;4964574;28;20600;-73
2022/01/25 08:29:58;;;;;;;1.63;1.40;;;4.00;98.20;;;;;;4968923;28;20493;-73
2022/01/25 08:32:25;;;;;;;1.63;1.40;;;4.00;98.20;;;;;;4960236;28;20485;-73
2022/01/25 08:34:52;;;;;;;1.60;1.30;;;4.00;98.20;;;;;;4962262;28;20466;-75
2022/01/25 08:37:20;;;;;;;1.63;1.40;;;4.00;98.20;;;;;;4961729;28;20481;-73
2022/01/25 08:39:47;;;;;;;1.63;1.40;;;4.00;98.20;;;;;;4970116;28;20855;-73
2022/01/25 08:42:14;;;;;;;1.63;1.40;;;4.00;98.20;;;;;;4958032;28;20858;-73
2022/01/25 08:44:41;;;;;;;1.67;1.40;;;4.00;98.20;;;;;;4957678;28;20470;-73
2022/01/25 08:47:09;;;;;;;1.60;1.40;;;4.00;98.20;;;;;;4949104;28;20481;-73
2022/01/25 08:49:38;;;;;;;1.60;1.30;;;3.90;98.20;;;;;;4962794;28;20901;-74
2022/01/25 08:52:05;;;;;;;1.60;1.40;;;4.00;98.20;;;;;;4957148;28;20504;-73
2022/01/25 08:54:34;;;;;;;1.87;1.67;;;4.00;98.20;;;;;;4960144;28;20477;-73
2022/01/25 08:57:02;;;;;;;1.70;1.50;;;4.00;98.20;;;;;;4948694;28;20494;-73
2022/01/25 08:59:29;;;;;;;1.63;1.30;;;4.00;98.20;;;;;;4953345;28;21031;-73
2022/01/25 09:01:56;;;;;;;1.67;1.30;;;4.00;98.20;;;;;;4948762;28;20482;-73
2022/01/25 09:04:23;;;;;;;1.67;1.47;;;4.00;98.20;;;;;;4963011;28;20471;-73
2022/01/25 09:06:49;;;;;;;1.60;1.30;;;4.00;98.20;;;;;;4947697;28;20998;-73
2022/01/25 09:09:16;;;;;;;1.60;1.30;;;4.00;98.20;;;;;;4969439;28;20497;-73
2022/01/25 09:11:44;;;;;;;1.60;1.33;;;4.00;98.20;;;;;;4957428;28;20572;-73
2022/01/25 09:14:12;;;;;;;1.67;1.40;;;4.00;98.20;;;;;;4953853;28;20478;-73
2022/01/25 09:16:40;;;;;;;1.70;1.40;;;4.00;98.20;;;;;;4945158;28;20537;-73
2022/01/25 09:19:07;;;;;;;1.70;1.40;;;4.00;98.20;;;;;;4973758;28;20843;-74
2022/01/25 09:21:34;;;;;;;1.60;1.33;;;4.10;98.20;;;;;;4956397;28;20482;-73
2022/01/25 09:24:02;;;;;;;1.70;1.50;;;4.10;98.20;;;;;;4963050;28;20473;-74
2022/01/25 09:26:29;;;;;;;1.60;1.40;;;4.10;98.20;;;;;;4944277;28;20485;-73
2022/01/25 09:28:58;;;;;;;1.60;1.30;;;4.10;98.20;;;;;;4966392;28;20486;-73
2022/01/25 09:31:25;;;;;;;1.63;1.37;;;4.10;98.20;;;;;;4949103;28;20490;-72
2022/01/25 09:33:52;;;;;;;1.60;1.40;;;4.10;98.20;;;;;;4976457;28;20947;-73
2022/01/25 09:36:19;;;;;;;1.70;1.50;;;4.10;98.20;;;;;;4957929;28;20908;-73
2022/01/25 09:38:46;;;;;;;1.60;1.30;;;4.10;98.20;;;;;;4964956;28;20491;-73
2022/01/25 09:41:14;;;;;;;1.60;1.40;;;4.10;98.20;;;;;;4939080;28;20488;-73
2022/01/25 09:43:40;;;;;;;1.60;1.40;;;4.10;98.20;;;;;;4959454;28;20478;-73
2022/01/25 09:46:09;;;;;;;1.70;1.40;;;4.10;98.20;;;;;;4940991;28;22483;-73
2022/01/25 09:48:35;;;;;;;1.67;1.40;;;4.10;98.20;;;;;;4961018;28;20990;-73
2022/01/25 09:51:03;;;;;;;1.63;1.40;;;4.10;98.20;;;;;;4939675;28;20478;-73
2022/01/25 09:53:33;;;;;;;1.60;1.30;;;4.10;98.20;;;;;;4966588;28;20466;-73
2022/01/25 09:56:00;;;;;;;1.60;1.40;;;4.20;98.20;;;;;;4942340;28;20970;-73
2022/01/25 09:58:27;;;;;;;1.70;1.30;;;4.20;98.20;;;;;;4965854;28;20494;-72
2022/01/25 10:00:57;;;;;;;1.60;1.40;;;4.20;98.20;;;;;;4941831;28;20471;-73
2022/01/25 10:03:32;;;;;;;1.60;1.40;;;4.20;98.20;;;;;;4965286;28;20525;-74
2022/01/25 10:06:02;;;;;;;5.20;3.57;;;4.10;98.20;;;;;;4943068;28;20564;-73
2022/01/25 10:08:32;;;;;;;1.60;1.30;;;4.20;98.20;;;;;;4967506;28;21049;-73
2022/01/25 10:11:01;;;;;;;1.70;1.40;;;4.20;98.20;;;;;;4959947;28;20466;-73
2022/01/25 10:13:30;;;;;;;1.60;1.40;;;4.20;98.20;;;;;;4983105;28;20472;-73
2022/01/25 10:16:01;;;;;;;1.60;1.30;;;4.20;98.20;;;;;;4944990;28;20466;-73
2022/01/25 10:18:41;;;;;;;1.70;1.40;;;4.20;98.20;;;;;;4964932;28;20642;-73
2022/01/25 10:21:12;;;;;;;1.60;1.30;;;4.20;98.20;;;;;;4943295;28;20483;-74
2022/01/25 10:23:41;;;;;;;1.60;1.30;;;4.30;98.20;;;;;;4966427;28;20993;-73
2022/01/25 10:26:08;;;;;;;1.60;1.40;;;4.30;98.20;;;;;;4949103;28;20910;-73
2022/01/25 10:28:35;;;;;;;1.60;1.30;;;4.30;98.20;;;;;;4963993;28;20498;-73
2022/01/25 10:31:05;;;;;;;1.60;1.50;;;4.30;98.20;;;;;;4935581;28;20471;-73
2022/01/25 10:33:37;;;;;;;1.60;1.30;;;4.40;98.20;;;;;;4966764;28;20462;-73
2022/01/25 10:36:13;;;;;;;1.83;1.73;;;4.40;98.20;;;;;;4956775;28;20564;-73
2022/01/25 10:38:42;;;;;;;3.10;2.90;;;4.40;98.20;;;;;;4968150;28;20486;-73
2022/01/25 10:41:12;;;;;;;1.70;1.43;;;4.40;98.20;;;;;;4939181;28;20478;-74
2022/01/25 10:43:40;;;;;;;1.60;1.30;;;4.40;98.20;;;;;;4959952;28;20474;-73
2022/01/25 10:46:17;;;;;;;1.60;1.30;;;4.40;98.20;;;;;;4951564;28;20462;-73
2022/01/25 10:48:49;;;;;;;1.60;1.40;;;4.40;98.20;;;;;;4981358;28;20933;-73
2022/01/25 10:51:21;;;;;;;2.17;1.97;;;4.40;98.20;;;;;;4961665;28;20489;-73
2022/01/25 10:53:58;;;;;;;1.60;1.40;;;4.50;98.20;;;;;;4975771;28;21015;-73
2022/01/25 10:56:25;;;;;;;1.70;1.40;;;4.50;98.20;;;;;;4947346;28;20508;-73
2022/01/25 10:58:52;;;;;;;1.63;1.30;;;4.50;98.20;;;;;;4966650;28;20485;-73
2022/01/25 11:01:31;;;;;;;2.67;2.37;;;4.50;98.20;;;;;;4942001;28;20515;-73
2022/01/25 11:04:06;;;;;;;1.60;1.30;;;4.50;98.20;;;;;;4960888;28;20470;-73
2022/01/25 11:06:34;;;;;;;1.60;1.30;;;4.50;98.20;;;;;;4944291;28;20481;-71
2022/01/25 11:09:04;;;;;;;1.70;1.40;;;4.40;98.20;;;;;;4974241;28;21146;-71
2022/01/25 11:11:34;;;;;;;1.60;1.40;;;4.40;98.20;;;;;;4946517;28;20900;-71
2022/01/25 11:14:50;;;;;;;1.60;1.40;;;4.40;98.20;;;;;;4961943;28;20469;-71
2022/01/25 11:16:49;;;;;;;1.63;1.40;;;4.50;98.20;;;;;;4947242;28;21014;-71
2022/01/25 11:19:17;;;;;;;1.63;1.40;;;4.40;98.20;;;;;;4957994;28;20482;-72
2022/01/25 11:21:45;;;;;;;1.67;1.40;;;4.40;98.20;;;;;;4951197;28;21002;-71
2022/01/25 11:24:14;;;;;;;1.60;1.40;;;4.50;98.20;;;;;;4961276;28;20509;-71
2022/01/25 11:26:42;;;;;;;2.17;1.97;;;4.50;98.20;;;;;;4954826;28;20497;-71
2022/01/25 11:29:09;;;;;;;1.60;1.40;;;4.50;98.20;;;;;;4959658;28;20879;-71
2022/01/25 11:31:39;;;;;;;1.60;1.40;;;4.50;98.20;;;;;;4945860;28;20486;-71
2022/01/25 11:34:09;;;;;;;1.60;1.30;;;4.50;98.20;;;;;;4958531;28;20467;-71
2022/01/25 11:36:46;;;;;;;1.60;1.40;;;4.50;98.20;;;;;;4946846;28;20533;-71
2022/01/25 11:39:19;;;;;;;1.70;1.53;;;4.50;98.20;;;;;;4948909;28;20479;-72
2022/01/25 11:41:46;;;;;;;1.60;1.40;;;4.50;98.20;;;;;;4941078;28;20576;-71
2022/01/25 11:44:16;;;;;;;1.60;1.30;;;4.40;98.20;;;;;;4958318;28;20458;-71
2022/01/25 11:46:49;;;;;;;1.60;1.30;;;4.40;98.20;;;;;;4944105;28;20484;-73
2022/01/25 11:49:18;;;;;;;4.83;4.00;;;4.50;98.20;;;;;;4962123;28;20615;-73
2022/01/25 11:52:03;;;;;;;1.60;1.30;;;4.50;98.20;;;;;;4957005;28;20496;-73
2022/01/25 11:54:30;;;;;;;1.70;1.40;;;4.50;98.20;;;;;;4960353;28;20458;-73
2022/01/25 11:57:09;;;;;;;10.53;2.50;;;4.50;98.20;;;;;;4953082;28;20486;-73
2022/01/25 11:59:36;;;;;;;1.60;1.30;;;4.60;98.20;;;;;;4954622;28;20491;-72
2022/01/25 12:02:04;;;;;;;2.07;1.87;;;4.60;98.20;;;;;;4960799;28;20495;-73
2022/01/25 12:04:31;;;;;;;1.60;1.30;;;4.60;98.20;;;;;;4974291;28;20462;-73
2022/01/25 12:07:02;;;;;;;1.63;1.40;;;4.60;98.20;;;;;;4951944;28;20533;-73
2022/01/25 12:09:44;;;;;;;1.60;1.30;;;4.50;98.20;;;;;;4959603;28;20506;-73
2022/01/25 12:12:12;;;;;;;1.60;1.30;;;4.40;98.20;;;;;;4949454;28;20533;-71
2022/01/25 12:14:44;;;;;;;1.70;1.47;;;4.50;98.20;;;;;;4952520;28;20827;-72
2022/01/25 12:17:13;;;;;;;1.60;1.30;;;4.50;98.20;;;;;;4952434;28;20574;-72
2022/01/25 12:19:44;;;;;;;1.63;1.37;;;4.60;98.20;;;;;;4954610;28;20498;-72
2022/01/25 12:22:33;;;;;;;1.63;1.30;;;4.60;98.20;;;;;;4950633;28;20493;-72
2022/01/25 12:25:06;;;;;;;1.70;1.40;;;4.70;98.20;;;;;;4945685;28;20497;-72
2022/01/25 12:27:53;;;;;;;3.50;2.50;;;4.70;98.20;;;;;;4957478;28;20508;-72
2022/01/25 12:30:31;;;;;;;1.60;1.30;;;4.70;98.20;;;;;;4947784;28;20486;-72
2022/01/25 12:33:01;;;;;;;1.70;1.40;;;4.70;98.20;;;;;;4953039;28;20861;-72
2022/01/25 12:35:49;;;;;;;1.60;1.30;;;4.60;98.20;;;;;;4945131;28;20506;-72
2022/01/25 12:38:20;;;;;;;1.87;1.67;;;4.70;98.20;;;;;;4936266;28;20479;-72
2022/01/25 12:41:01;;;;;;;1.60;1.30;;;4.70;98.20;;;;;;4948235;28;20522;-72
2022/01/25 12:43:33;;;;;;;1.60;1.30;;;4.60;98.20;;;;;;4934413;28;20483;-72
2022/01/25 12:46:04;;;;;;;1.60;1.50;;;4.60;98.20;;;;;;4938029;28;20470;-72
2022/01/25 12:48:33;;;;;;;6.27;5.80;;;4.60;98.20;;;;;;4961678;28;20893;-72
2022/01/25 12:51:04;;;;;;;1.60;1.30;;;4.70;98.20;;;;;;4939503;28;20558;-72
2022/01/25 12:53:34;;;;;;;1.60;1.30;;;4.70;98.20;;;;;;4963643;28;20750;-73
2022/01/25 12:56:06;;;;;;;1.60;1.30;;;4.70;98.20;;;;;;4940277;28;20470;-72
2022/01/25 12:58:34;;;;;;;1.60;1.30;;;4.70;98.20;;;;;;4951766;28;20959;-72
2022/01/25 13:01:04;;;;;;;1.60;1.30;;;4.60;98.20;;;;;;4939933;28;20474;-72
2022/01/25 13:03:33;;;;;;;1.70;1.40;;;4.70;98.20;;;;;;4961863;28;20463;-72
2022/01/25 13:06:08;;;;;;;2.07;1.87;;;4.70;98.20;;;;;;4940683;28;20463;-72
2022/01/25 13:08:42;;;;;;;1.60;1.30;;;4.70;98.20;;;;;;4957248;28;21010;-72
2022/01/25 13:11:26;;;;;;;1.70;1.50;;;4.60;98.20;;;;;;4938727;28;20548;-72
2022/01/25 13:14:02;;;;;;;1.60;1.23;;;4.70;98.20;;;;;;4956882;28;20566;-71
2022/01/25 13:16:44;;;;;;;1.60;1.30;;;4.70;98.20;;;;;;4942404;28;20473;-71
2022/01/25 13:19:12;;;;;;;1.60;1.30;;;4.60;98.20;;;;;;4949009;28;20487;-72
2022/01/25 13:21:42;;;;;;;1.70;1.40;;;4.60;98.20;;;;;;4943437;28;20512;-72
2022/01/25 13:24:13;;;;;;;1.60;1.30;;;4.70;98.20;;;;;;4952571;28;20497;-72
2022/01/25 13:26:55;;;;;;;1.60;1.30;;;4.70;98.20;;;;;;4946335;28;20490;-72
2022/01/25 13:32:19;;;;;;;4.43;3.77;;;4.80;98.20;;;;;;4946635;28;21181;-72
2022/01/25 13:35:01;;;;;;;1.60;1.40;;;4.80;98.20;;;;;;4952153;28;20462;-72
2022/01/25 13:37:28;;;;;;;1.60;1.30;;;4.70;98.20;;;;;;4951364;28;20565;-71
2022/01/25 13:39:59;;;;;;;1.60;1.40;;;4.70;98.20;;;;;;4950499;28;20490;-72
2022/01/25 13:42:34;;;;;;;1.70;1.53;;;4.70;98.20;;;;;;4948570;28;20556;-72
2022/01/25 13:47:59;;;;;;;1.60;1.30;;;4.80;98.20;;;;;;4955346;28;20536;-72
2022/01/25 13:50:27;;;;;;;1.60;1.40;;;4.80;98.20;;;;;;4948349;28;20463;-72
2022/01/25 13:52:54;;;;;;;1.60;1.30;;;4.80;98.20;;;;;;4954766;28;20482;-72
2022/01/25 13:55:22;;;;;;;1.70;1.50;;;4.90;98.20;;;;;;4945932;28;20458;-72
2022/01/25 13:57:49;;;;;;;1.60;1.40;;;4.90;98.20;;;;;;4952781;28;20497;-72
2022/01/25 14:00:17;;;;;;;1.60;1.30;;;4.90;98.20;;;;;;4947887;28;20972;-71
2022/01/25 14:02:48;;;;;;;1.60;1.30;;;4.90;98.20;;;;;;4950046;28;20576;-72
2022/01/25 14:05:15;;;;;;;1.60;1.30;;;4.90;98.20;;;;;;4946774;28;20891;-72
2022/01/25 14:07:42;;;;;;;1.60;1.30;;;4.90;98.20;;;;;;4952730;28;20898;-73
2022/01/25 14:10:17;;;;;;;1.60;1.50;;;4.90;98.20;;;;;;4948922;28;20529;-72
2022/01/25 14:23:44;;;;;;;1.60;1.33;;;5.00;98.20;;;;;;4958814;28;20490;-72
2022/01/25 14:26:12;;;;;;;1.60;1.30;;;5.10;98.20;;;;;;4942500;28;20478;-71
2022/01/25 14:28:43;;;;;;;1.60;1.30;;;5.10;98.20;;;;;;4960180;28;20533;-72
2022/01/25 14:31:18;;;;;;;1.60;1.40;;;5.10;98.20;;;;;;4945721;28;20500;-72
2022/01/25 14:33:54;;;;;;;1.60;1.30;;;5.10;98.20;;;;;;4959619;28;21141;-72
2022/01/25 14:36:23;;;;;;;1.60;1.30;;;5.10;98.20;;;;;;4942229;28;20887;-71
2022/01/25 14:38:52;;;;;;;1.60;1.40;;;5.10;98.20;;;;;;4962627;28;20483;-73
2022/01/25 14:41:23;;;;;;;1.60;1.40;;;5.10;98.20;;;;;;4945002;28;20473;-73